Mexico, Indiana
Current Conditions -  °F | °C
As of 7:33 PM on Sunday 21 Dec 2014 (Local Time) from KGUS Reporting Station
Clear Clear  
Wind Chill: 25°   Ceiling: Unl
Heat Index: 32°   Visibility: 10mi
Dew Point: 32°   Wind: 8mph
Humidity: 100%   Direction: 130°SE
Pressure: 30.12"   Gusts: NA
Location:  40.82°N, 86.12°W
Report Text: KGUS 220033Z AUTO 13007KT 10SM CLR 00/00 A3012 RMK AO2
Loading
Personal Weather Stations






























Interactive Weather Map New forecast layout! Learn more

10-Day Weather Forecast

Advertisements
Track Severe Weather on mobile